sensor_id;sensor_type;location;lat;lon;timestamp;pressure;altitude;pressure_sealevel;temperature;humidity
55077;BME280;40971;44.702;11.030;2022-11-20T00:00:47;100602.38;;;7.18;100.00
55077;BME280;40971;44.702;11.030;2022-11-20T00:03:13;100603.34;;;7.16;100.00
55077;BME280;40971;44.702;11.030;2022-11-20T00:05:38;100579.72;;;7.02;100.00
55077;BME280;40971;44.702;11.030;2022-11-20T00:08:04;100598.59;;;7.05;100.00
55077;BME280;40971;44.702;11.030;2022-11-20T00:10:30;100602.06;;;7.06;100.00
55077;BME280;40971;44.702;11.030;2022-11-20T00:12:57;100594.31;;;7.04;100.00
55077;BME280;40971;44.702;11.030;2022-11-20T00:15:23;100599.00;;;6.96;100.00
55077;BME280;40971;44.702;11.030;2022-11-20T00:17:48;100563.69;;;6.70;100.00
55077;BME280;40971;44.702;11.030;2022-11-20T00:20:14;100611.00;;;6.99;100.00
55077;BME280;40971;44.702;11.030;2022-11-20T00:22:39;100600.25;;;6.86;100.00
55077;BME280;40971;44.702;11.030;2022-11-20T00:25:05;100627.75;;;6.91;100.00
55077;BME280;40971;44.702;11.030;2022-11-20T00:27:31;100615.00;;;6.85;100.00
55077;BME280;40971;44.702;11.030;2022-11-20T00:29:56;100622.63;;;6.90;100.00
55077;BME280;40971;44.702;11.030;2022-11-20T00:32:21;100596.53;;;6.71;100.00
55077;BME280;40971;44.702;11.030;2022-11-20T00:34:47;100634.19;;;6.81;100.00
55077;BME280;40971;44.702;11.030;2022-11-20T00:37:12;100631.00;;;6.75;100.00
55077;BME280;40971;44.702;11.030;2022-11-20T00:39:38;100629.19;;;6.77;100.00
55077;BME280;40971;44.702;11.030;2022-11-20T00:42:03;100622.66;;;6.67;100.00
55077;BME280;40971;44.702;11.030;2022-11-20T00:44:29;100627.00;;;6.66;100.00
55077;BME280;40971;44.702;11.030;2022-11-20T00:46:54;100614.09;;;6.64;100.00
55077;BME280;40971;44.702;11.030;2022-11-20T00:49:21;100640.50;;;6.76;100.00
55077;BME280;40971;44.702;11.030;2022-11-20T00:51:47;100604.25;;;6.51;100.00
55077;BME280;40971;44.702;11.030;2022-11-20T00:54:12;100604.31;;;6.49;100.00
55077;BME280;40971;44.702;11.030;2022-11-20T00:56:38;100621.22;;;6.59;100.00
55077;BME280;40971;44.702;11.030;2022-11-20T00:59:04;100559.56;;;6.22;100.00
55077;BME280;40971;44.702;11.030;2022-11-20T01:01:29;100618.06;;;6.51;100.00
55077;BME280;40971;44.702;11.030;2022-11-20T01:03:57;100614.69;;;6.49;100.00
55077;BME280;40971;44.702;11.030;2022-11-20T01:08:49;100640.38;;;6.57;100.00
55077;BME280;40971;44.702;11.030;2022-11-20T01:11:18;100640.66;;;6.49;100.00
55077;BME280;40971;44.702;11.030;2022-11-20T01:13:45;100644.75;;;6.55;100.00
55077;BME280;40971;44.702;11.030;2022-11-20T01:18:41;100649.94;;;6.55;100.00
55077;BME280;40971;44.702;11.030;2022-11-20T01:21:21;100634.00;;;6.42;100.00
55077;BME280;40971;44.702;11.030;2022-11-20T01:23:48;100651.03;;;6.49;100.00
55077;BME280;40971;44.702;11.030;2022-11-20T01:26:22;100639.19;;;6.42;100.00
55077;BME280;40971;44.702;11.030;2022-11-20T01:28:49;100623.19;;;6.31;100.00
55077;BME280;40971;44.702;11.030;2022-11-20T01:31:22;100635.19;;;6.33;100.00
55077;BME280;40971;44.702;11.030;2022-11-20T01:33:51;100633.56;;;6.31;100.00
55077;BME280;40971;44.702;11.030;2022-11-20T01:36:19;100639.78;;;6.27;100.00
55077;BME280;40971;44.702;11.030;2022-11-20T01:38:45;100647.75;;;6.22;100.00
55077;BME280;40971;44.702;11.030;2022-11-20T01:41:12;100631.41;;;6.19;100.00
55077;BME280;40971;44.702;11.030;2022-11-20T01:43:57;100594.13;;;5.99;100.00
55077;BME280;40971;44.702;11.030;2022-11-20T01:46:29;100663.72;;;6.33;100.00
55077;BME280;40971;44.702;11.030;2022-11-20T01:49:15;100562.22;;;5.74;100.00
55077;BME280;40971;44.702;11.030;2022-11-20T01:51:46;100662.75;;;6.36;100.00
55077;BME280;40971;44.702;11.030;2022-11-20T01:54:43;100634.19;;;6.14;100.00
55077;BME280;40971;44.702;11.030;2022-11-20T01:57:08;100637.69;;;6.13;100.00
55077;BME280;40971;44.702;11.030;2022-11-20T01:59:41;100653.06;;;6.18;100.00
55077;BME280;40971;44.702;11.030;2022-11-20T02:02:10;100661.69;;;6.18;100.00
55077;BME280;40971;44.702;11.030;2022-11-20T02:04:35;100596.44;;;5.82;100.00
55077;BME280;40971;44.702;11.030;2022-11-20T02:07:02;100638.19;;;5.99;100.00
55077;BME280;40971;44.702;11.030;2022-11-20T02:09:31;100624.63;;;5.93;100.00
55077;BME280;40971;44.702;11.030;2022-11-20T02:11:57;100668.56;;;6.19;100.00
55077;BME280;40971;44.702;11.030;2022-11-20T02:14:24;100662.00;;;6.11;100.00
55077;BME280;40971;44.702;11.030;2022-11-20T02:16:50;100679.25;;;6.12;100.00
55077;BME280;40971;44.702;11.030;2022-11-20T02:22:05;100681.53;;;5.96;100.00
55077;BME280;40971;44.702;11.030;2022-11-20T02:24:41;100677.31;;;5.93;100.00
55077;BME280;40971;44.702;11.030;2022-11-20T02:27:11;100683.56;;;5.86;100.00
55077;BME280;40971;44.702;11.030;2022-11-20T02:32:21;100668.75;;;5.91;100.00
55077;BME280;40971;44.702;11.030;2022-11-20T02:34:47;100667.22;;;5.84;100.00
55077;BME280;40971;44.702;11.030;2022-11-20T02:37:13;100604.84;;;5.40;100.00
55077;BME280;40971;44.702;11.030;2022-11-20T02:39:40;100651.59;;;5.62;100.00
55077;BME280;40971;44.702;11.030;2022-11-20T02:42:05;100683.78;;;5.80;100.00
55077;BME280;40971;44.702;11.030;2022-11-20T02:44:32;100680.16;;;5.84;100.00
55077;BME280;40971;44.702;11.030;2022-11-20T02:46:58;100664.13;;;5.74;100.00
55077;BME280;40971;44.702;11.030;2022-11-20T02:49:23;100663.41;;;5.69;100.00
55077;BME280;40971;44.702;11.030;2022-11-20T02:51:49;100674.19;;;5.82;100.00
55077;BME280;40971;44.702;11.030;2022-11-20T02:54:14;100632.91;;;5.53;100.00
55077;BME280;40971;44.702;11.030;2022-11-20T02:56:40;100658.56;;;5.60;100.00
55077;BME280;40971;44.702;11.030;2022-11-20T02:59:06;100670.50;;;5.64;100.00
55077;BME280;40971;44.702;11.030;2022-11-20T03:01:31;100638.47;;;5.42;100.00
55077;BME280;40971;44.702;11.030;2022-11-20T03:03:57;100680.69;;;5.69;100.00
55077;BME280;40971;44.702;11.030;2022-11-20T03:06:22;100622.72;;;5.48;100.00
55077;BME280;40971;44.702;11.030;2022-11-20T03:08:48;100668.59;;;5.69;100.00
55077;BME280;40971;44.702;11.030;2022-11-20T03:11:13;100677.06;;;5.74;100.00
55077;BME280;40971;44.702;11.030;2022-11-20T03:13:41;100662.09;;;5.58;100.00
55077;BME280;40971;44.702;11.030;2022-11-20T03:16:19;100665.06;;;5.72;100.00
55077;BME280;40971;44.702;11.030;2022-11-20T03:18:49;100685.31;;;5.86;100.00
55077;BME280;40971;44.702;11.030;2022-11-20T03:21:16;100665.59;;;5.82;100.00
55077;BME280;40971;44.702;11.030;2022-11-20T03:23:42;100628.22;;;5.64;100.00
55077;BME280;40971;44.702;11.030;2022-11-20T03:26:09;100693.66;;;5.95;100.00
55077;BME280;40971;44.702;11.030;2022-11-20T03:28:36;100688.22;;;5.77;100.00
55077;BME280;40971;44.702;11.030;2022-11-20T03:31:13;100688.91;;;5.82;100.00
55077;BME280;40971;44.702;11.030;2022-11-20T03:33:39;100683.94;;;5.76;100.00
55077;BME280;40971;44.702;11.030;2022-11-20T03:36:06;100700.84;;;5.86;100.00
55077;BME280;40971;44.702;11.030;2022-11-20T03:38:32;100691.50;;;5.57;100.00
55077;BME280;40971;44.702;11.030;2022-11-20T03:41:09;100653.69;;;5.26;100.00
55077;BME280;40971;44.702;11.030;2022-11-20T03:43:35;100702.16;;;5.74;100.00
55077;BME280;40971;44.702;11.030;2022-11-20T03:46:00;100663.91;;;5.56;100.00
55077;BME280;40971;44.702;11.030;2022-11-20T03:48:26;100614.72;;;5.29;100.00
55077;BME280;40971;44.702;11.030;2022-11-20T03:50:53;100707.91;;;5.82;100.00
55077;BME280;40971;44.702;11.030;2022-11-20T03:53:31;100684.91;;;5.73;100.00
55077;BME280;40971;44.702;11.030;2022-11-20T03:55:56;100700.16;;;5.81;100.00
55077;BME280;40971;44.702;11.030;2022-11-20T03:58:22;100686.38;;;5.80;100.00
55077;BME280;40971;44.702;11.030;2022-11-20T04:00:47;100682.19;;;5.76;100.00
55077;BME280;40971;44.702;11.030;2022-11-20T04:03:12;100700.00;;;5.85;100.00
55077;BME280;40971;44.702;11.030;2022-11-20T04:05:38;100649.56;;;5.46;100.00
55077;BME280;40971;44.702;11.030;2022-11-20T04:08:03;100705.31;;;5.57;100.00
55077;BME280;40971;44.702;11.030;2022-11-20T04:10:29;100708.22;;;5.20;100.00
55077;BME280;40971;44.702;11.030;2022-11-20T04:12:55;100657.41;;;4.91;100.00
55077;BME280;40971;44.702;11.030;2022-11-20T04:15:21;100712.34;;;5.27;100.00
55077;BME280;40971;44.702;11.030;2022-11-20T04:17:46;100693.91;;;5.10;100.00
55077;BME280;40971;44.702;11.030;2022-11-20T04:20:12;100694.75;;;5.10;100.00
55077;BME280;40971;44.702;11.030;2022-11-20T04:22:37;100682.50;;;5.16;100.00
55077;BME280;40971;44.702;11.030;2022-11-20T04:25:03;100703.72;;;5.27;100.00
55077;BME280;40971;44.702;11.030;2022-11-20T04:27:30;100706.84;;;5.36;100.00
55077;BME280;40971;44.702;11.030;2022-11-20T04:29:55;100700.22;;;5.28;100.00
55077;BME280;40971;44.702;11.030;2022-11-20T04:32:21;100677.53;;;5.09;100.00
55077;BME280;40971;44.702;11.030;2022-11-20T04:34:46;100707.94;;;5.29;100.00
55077;BME280;40971;44.702;11.030;2022-11-20T04:37:12;100690.09;;;5.20;100.00
55077;BME280;40971;44.702;11.030;2022-11-20T04:39:37;100691.63;;;5.27;100.00
55077;BME280;40971;44.702;11.030;2022-11-20T04:42:03;100711.00;;;4.88;100.00
55077;BME280;40971;44.702;11.030;2022-11-20T04:44:47;100713.16;;;5.01;100.00
55077;BME280;40971;44.702;11.030;2022-11-20T04:47:12;100690.91;;;4.96;100.00
55077;BME280;40971;44.702;11.030;2022-11-20T04:49:38;100703.88;;;4.94;100.00
55077;BME280;40971;44.702;11.030;2022-11-20T04:52:03;100713.50;;;4.91;100.00
55077;BME280;40971;44.702;11.030;2022-11-20T04:54:28;100686.34;;;4.76;100.00
55077;BME280;40971;44.702;11.030;2022-11-20T04:56:54;100709.81;;;4.98;100.00
55077;BME280;40971;44.702;11.030;2022-11-20T04:59:19;100696.44;;;4.56;100.00
55077;BME280;40971;44.702;11.030;2022-11-20T05:01:45;100701.03;;;4.46;100.00
55077;BME280;40971;44.702;11.030;2022-11-20T05:04:13;100724.56;;;4.66;100.00
55077;BME280;40971;44.702;11.030;2022-11-20T05:06:39;100604.00;;;4.05;100.00
55077;BME280;40971;44.702;11.030;2022-11-20T05:09:04;100725.94;;;4.78;100.00
55077;BME280;40971;44.702;11.030;2022-11-20T05:11:31;100706.34;;;4.69;100.00
55077;BME280;40971;44.702;11.030;2022-11-20T05:13:58;100709.25;;;4.60;100.00
55077;BME280;40971;44.702;11.030;2022-11-20T05:16:25;100752.44;;;4.86;100.00
55077;BME280;40971;44.702;11.030;2022-11-20T05:18:52;100745.44;;;4.90;100.00
55077;BME280;40971;44.702;11.030;2022-11-20T05:21:19;100686.41;;;4.45;100.00
55077;BME280;40971;44.702;11.030;2022-11-20T05:23:45;100722.03;;;4.65;100.00
55077;BME280;40971;44.702;11.030;2022-11-20T05:26:17;100739.81;;;4.75;100.00
55077;BME280;40971;44.702;11.030;2022-11-20T05:28:44;100700.19;;;4.45;100.00
55077;BME280;40971;44.702;11.030;2022-11-20T05:31:11;100685.28;;;4.24;100.00
55077;BME280;40971;44.702;11.030;2022-11-20T05:33:42;100758.00;;;4.43;100.00
55077;BME280;40971;44.702;11.030;2022-11-20T05:36:08;100765.84;;;4.40;100.00
55077;BME280;40971;44.702;11.030;2022-11-20T05:38:34;100776.28;;;4.37;100.00
55077;BME280;40971;44.702;11.030;2022-11-20T05:41:10;100774.38;;;4.43;100.00
55077;BME280;40971;44.702;11.030;2022-11-20T05:43:37;100775.41;;;4.36;100.00
55077;BME280;40971;44.702;11.030;2022-11-20T05:46:02;100778.09;;;4.33;100.00
55077;BME280;40971;44.702;11.030;2022-11-20T05:48:28;100752.56;;;4.22;100.00
55077;BME280;40971;44.702;11.030;2022-11-20T05:50:53;100767.09;;;4.27;100.00
55077;BME280;40971;44.702;11.030;2022-11-20T05:53:19;100776.47;;;4.29;100.00
55077;BME280;40971;44.702;11.030;2022-11-20T05:55:44;100783.53;;;4.24;100.00
55077;BME280;40971;44.702;11.030;2022-11-20T05:58:10;100762.81;;;4.26;100.00
55077;BME280;40971;44.702;11.030;2022-11-20T06:00:35;100705.56;;;4.08;100.00
55077;BME280;40971;44.702;11.030;2022-11-20T06:03:01;100779.13;;;4.59;100.00
55077;BME280;40971;44.702;11.030;2022-11-20T06:05:26;100734.03;;;4.07;100.00
55077;BME280;40971;44.702;11.030;2022-11-20T06:07:52;100779.50;;;4.45;100.00
55077;BME280;40971;44.702;11.030;2022-11-20T06:10:17;100791.25;;;4.57;100.00
55077;BME280;40971;44.702;11.030;2022-11-20T06:12:47;100801.03;;;4.45;100.00
55077;BME280;40971;44.702;11.030;2022-11-20T06:15:17;100775.88;;;4.21;100.00
55077;BME280;40971;44.702;11.030;2022-11-20T06:17:43;100797.50;;;4.17;100.00
55077;BME280;40971;44.702;11.030;2022-11-20T06:20:09;100793.41;;;4.08;100.00
55077;BME280;40971;44.702;11.030;2022-11-20T06:22:34;100799.19;;;4.18;100.00
55077;BME280;40971;44.702;11.030;2022-11-20T06:25:00;100779.25;;;4.23;100.00
55077;BME280;40971;44.702;11.030;2022-11-20T06:27:25;100808.72;;;4.48;100.00
55077;BME280;40971;44.702;11.030;2022-11-20T06:29:50;100799.94;;;4.54;100.00
55077;BME280;40971;44.702;11.030;2022-11-20T06:32:16;100803.97;;;4.64;100.00
55077;BME280;40971;44.702;11.030;2022-11-20T06:34:41;100763.97;;;4.45;100.00
55077;BME280;40971;44.702;11.030;2022-11-20T06:37:07;100791.59;;;4.44;100.00
55077;BME280;40971;44.702;11.030;2022-11-20T06:39:32;100808.72;;;4.48;100.00
55077;BME280;40971;44.702;11.030;2022-11-20T06:41:57;100813.84;;;4.50;100.00
55077;BME280;40971;44.702;11.030;2022-11-20T06:44:23;100818.69;;;4.62;100.00
55077;BME280;40971;44.702;11.030;2022-11-20T06:46:48;100802.41;;;4.59;100.00
55077;BME280;40971;44.702;11.030;2022-11-20T06:49:14;100832.22;;;4.72;100.00
55077;BME280;40971;44.702;11.030;2022-11-20T06:51:39;100838.28;;;4.71;100.00
55077;BME280;40971;44.702;11.030;2022-11-20T06:54:10;100823.13;;;4.57;100.00
55077;BME280;40971;44.702;11.030;2022-11-20T06:56:35;100824.59;;;4.66;100.00
55077;BME280;40971;44.702;11.030;2022-11-20T06:59:04;100850.47;;;4.97;100.00
55077;BME280;40971;44.702;11.030;2022-11-20T07:01:30;100822.13;;;4.92;100.00
55077;BME280;40971;44.702;11.030;2022-11-20T07:03:56;100846.59;;;5.11;100.00
55077;BME280;40971;44.702;11.030;2022-11-20T07:06:21;100849.72;;;5.23;100.00
55077;BME280;40971;44.702;11.030;2022-11-20T07:08:46;100863.00;;;5.40;100.00
55077;BME280;40971;44.702;11.030;2022-11-20T11:12:56;100966.34;;;10.72;100.00
55077;BME280;40971;44.702;11.030;2022-11-20T11:15:40;100964.47;;;10.92;100.00
55077;BME280;40971;44.702;11.030;2022-11-20T11:18:10;100935.53;;;10.79;100.00
55077;BME280;40971;44.702;11.030;2022-11-20T11:20:36;100921.84;;;10.74;100.00
55077;BME280;40971;44.702;11.030;2022-11-20T11:23:02;100951.47;;;11.07;100.00
55077;BME280;40971;44.702;11.030;2022-11-20T11:25:35;100920.59;;;10.98;100.00
55077;BME280;40971;44.702;11.030;2022-11-20T11:28:23;100885.09;;;10.94;100.00
55077;BME280;40971;44.702;11.030;2022-11-20T11:30:51;100944.84;;;11.18;100.00
55077;BME280;40971;44.702;11.030;2022-11-20T11:33:22;100918.09;;;11.12;100.00
55077;BME280;40971;44.702;11.030;2022-11-20T11:35:50;100937.50;;;11.24;100.00
55077;BME280;40971;44.702;11.030;2022-11-20T11:41:03;100929.84;;;11.37;100.00
55077;BME280;40971;44.702;11.030;2022-11-20T11:43:32;100874.91;;;11.05;100.00
55077;BME280;40971;44.702;11.030;2022-11-20T11:48:59;100892.47;;;11.19;100.00
55077;BME280;40971;44.702;11.030;2022-11-20T11:51:34;100926.16;;;11.57;100.00
55077;BME280;40971;44.702;11.030;2022-11-20T11:54:10;100916.03;;;11.66;100.00
55077;BME280;40971;44.702;11.030;2022-11-20T11:56:39;100927.56;;;11.80;100.00
55077;BME280;40971;44.702;11.030;2022-11-20T11:59:06;100897.63;;;11.68;100.00
55077;BME280;40971;44.702;11.030;2022-11-20T12:01:59;100919.53;;;11.83;100.00
55077;BME280;40971;44.702;11.030;2022-11-20T12:04:54;100913.94;;;11.89;100.00
55077;BME280;40971;44.702;11.030;2022-11-20T12:07:34;100866.72;;;11.74;100.00
55077;BME280;40971;44.702;11.030;2022-11-20T12:10:04;100920.53;;;12.26;100.00
55077;BME280;40971;44.702;11.030;2022-11-20T12:12:39;100904.63;;;12.15;100.00
55077;BME280;40971;44.702;11.030;2022-11-20T12:15:13;100913.13;;;12.18;100.00
55077;BME280;40971;44.702;11.030;2022-11-20T12:17:41;100918.50;;;12.31;100.00
55077;BME280;40971;44.702;11.030;2022-11-20T12:20:13;100810.19;;;11.72;100.00
55077;BME280;40971;44.702;11.030;2022-11-20T12:25:30;100910.00;;;12.27;100.00
55077;BME280;40971;44.702;11.030;2022-11-20T12:28:32;100927.91;;;12.49;100.00
55077;BME280;40971;44.702;11.030;2022-11-20T12:39:25;100871.50;;;12.44;100.00
55077;BME280;40971;44.702;11.030;2022-11-20T12:42:08;100860.00;;;12.60;100.00
55077;BME280;40971;44.702;11.030;2022-11-20T12:57:15;100904.50;;;13.74;100.00
55077;BME280;40971;44.702;11.030;2022-11-20T13:02:25;100898.41;;;14.01;100.00
55077;BME280;40971;44.702;11.030;2022-11-20T13:07:32;100891.50;;;14.52;96.10
55077;BME280;40971;44.702;11.030;2022-11-20T13:10:00;100874.91;;;14.64;99.60
55077;BME280;40971;44.702;11.030;2022-11-20T13:12:41;100871.41;;;14.89;96.95
55077;BME280;40971;44.702;11.030;2022-11-20T13:15:32;100883.09;;;14.72;89.73
55077;BME280;40971;44.702;11.030;2022-11-20T13:18:00;100876.81;;;14.62;90.29
55077;BME280;40971;44.702;11.030;2022-11-20T13:20:27;100874.06;;;14.64;90.71
55077;BME280;40971;44.702;11.030;2022-11-20T13:22:54;100859.97;;;14.65;94.42
55077;BME280;40971;44.702;11.030;2022-11-20T13:25:33;100876.88;;;14.86;92.74
55077;BME280;40971;44.702;11.030;2022-11-20T13:30:49;100869.28;;;15.07;93.37
55077;BME280;40971;44.702;11.030;2022-11-20T13:36:03;100862.22;;;14.31;97.91
55077;BME280;40971;44.702;11.030;2022-11-20T13:38:50;100880.50;;;14.20;97.56
55077;BME280;40971;44.702;11.030;2022-11-20T13:41:25;100812.63;;;14.14;99.26
55077;BME280;40971;44.702;11.030;2022-11-20T13:43:58;100870.16;;;14.69;97.74
55077;BME280;40971;44.702;11.030;2022-11-20T13:46:42;100867.44;;;14.46;91.94
55077;BME280;40971;44.702;11.030;2022-11-20T13:49:16;100848.06;;;14.59;94.06
55077;BME280;40971;44.702;11.030;2022-11-20T13:51:46;100863.66;;;14.62;90.27
55077;BME280;40971;44.702;11.030;2022-11-20T13:57:43;100825.03;;;14.37;95.87
55077;BME280;40971;44.702;11.030;2022-11-20T14:00:15;100842.03;;;14.19;96.90
55077;BME280;40971;44.702;11.030;2022-11-20T14:02:41;100841.19;;;14.19;99.06
55077;BME280;40971;44.702;11.030;2022-11-20T14:05:21;100777.28;;;13.80;98.76
55077;BME280;40971;44.702;11.030;2022-11-20T14:07:51;100864.06;;;14.04;96.14
55077;BME280;40971;44.702;11.030;2022-11-20T14:10:27;100863.75;;;13.96;100.00
55077;BME280;40971;44.702;11.030;2022-11-20T14:12:53;100871.56;;;13.83;100.00
55077;BME280;40971;44.702;11.030;2022-11-20T14:17:50;100839.22;;;13.82;100.00
55077;BME280;40971;44.702;11.030;2022-11-20T14:20:15;100762.28;;;13.55;100.00
55077;BME280;40971;44.702;11.030;2022-11-20T14:22:51;100866.09;;;14.13;99.33
55077;BME280;40971;44.702;11.030;2022-11-20T14:27:52;100827.72;;;13.98;99.68
55077;BME280;40971;44.702;11.030;2022-11-20T14:30:22;100809.50;;;13.82;99.55
55077;BME280;40971;44.702;11.030;2022-11-20T14:32:48;100874.78;;;14.01;100.00
55077;BME280;40971;44.702;11.030;2022-11-20T14:35:29;100863.44;;;13.73;100.00
55077;BME280;40971;44.702;11.030;2022-11-20T14:37:55;100832.97;;;13.71;100.00
55077;BME280;40971;44.702;11.030;2022-11-20T14:40:23;100824.94;;;13.60;100.00
55077;BME280;40971;44.702;11.030;2022-11-20T14:42:49;100772.22;;;12.82;100.00
55077;BME280;40971;44.702;11.030;2022-11-20T14:45:15;100800.28;;;12.94;100.00
55077;BME280;40971;44.702;11.030;2022-11-20T14:47:41;100868.25;;;13.11;100.00
55077;BME280;40971;44.702;11.030;2022-11-20T14:50:22;100872.25;;;13.17;100.00
55077;BME280;40971;44.702;11.030;2022-11-20T14:55:37;100858.16;;;12.77;100.00
55077;BME280;40971;44.702;11.030;2022-11-20T14:58:05;100881.75;;;12.77;100.00
55077;BME280;40971;44.702;11.030;2022-11-20T15:00:33;100859.63;;;12.52;100.00
55077;BME280;40971;44.702;11.030;2022-11-20T15:02:59;100844.34;;;12.30;100.00
55077;BME280;40971;44.702;11.030;2022-11-20T15:05:46;100849.41;;;12.03;100.00
55077;BME280;40971;44.702;11.030;2022-11-20T15:08:12;100864.53;;;11.98;100.00
55077;BME280;40971;44.702;11.030;2022-11-20T15:10:50;100875.44;;;11.91;100.00
55077;BME280;40971;44.702;11.030;2022-11-20T15:13:31;100799.28;;;11.50;100.00
55077;BME280;40971;44.702;11.030;2022-11-20T15:15:59;100871.50;;;11.84;100.00
55077;BME280;40971;44.702;11.030;2022-11-20T15:18:37;100822.47;;;11.40;100.00
55077;BME280;40971;44.702;11.030;2022-11-20T15:21:06;100884.56;;;11.68;100.00
55077;BME280;40971;44.702;11.030;2022-11-20T15:23:35;100828.53;;;11.25;100.00
55077;BME280;40971;44.702;11.030;2022-11-20T15:26:00;100768.50;;;10.76;100.00
55077;BME280;40971;44.702;11.030;2022-11-20T15:28:31;100866.78;;;11.27;100.00
55077;BME280;40971;44.702;11.030;2022-11-20T15:30:58;100860.69;;;11.11;100.00
55077;BME280;40971;44.702;11.030;2022-11-20T15:33:24;100878.13;;;11.10;100.00
55077;BME280;40971;44.702;11.030;2022-11-20T15:35:49;100846.03;;;10.91;100.00
55077;BME280;40971;44.702;11.030;2022-11-20T15:38:15;100867.22;;;11.02;100.00
55077;BME280;40971;44.702;11.030;2022-11-20T15:40:41;100865.34;;;10.89;100.00
55077;BME280;40971;44.702;11.030;2022-11-20T15:43:06;100822.19;;;10.48;100.00
55077;BME280;40971;44.702;11.030;2022-11-20T15:45:42;100855.34;;;10.64;100.00
55077;BME280;40971;44.702;11.030;2022-11-20T15:48:12;100876.75;;;10.70;100.00
55077;BME280;40971;44.702;11.030;2022-11-20T15:53:40;100865.06;;;10.27;100.00
55077;BME280;40971;44.702;11.030;2022-11-20T15:56:06;100835.41;;;9.93;100.00
55077;BME280;40971;44.702;11.030;2022-11-20T15:58:31;100874.16;;;10.01;100.00
55077;BME280;40971;44.702;11.030;2022-11-20T16:00:57;100840.38;;;9.81;100.00
55077;BME280;40971;44.702;11.030;2022-11-20T16:03:23;100866.22;;;9.85;100.00
55077;BME280;40971;44.702;11.030;2022-11-20T16:05:49;100852.94;;;9.73;100.00
55077;BME280;40971;44.702;11.030;2022-11-20T16:08:14;100865.84;;;9.76;100.00
55077;BME280;40971;44.702;11.030;2022-11-20T16:10:40;100864.78;;;9.80;100.00
55077;BME280;40971;44.702;11.030;2022-11-20T16:13:17;100820.38;;;9.45;100.00
55077;BME280;40971;44.702;11.030;2022-11-20T16:16:23;100868.06;;;9.47;100.00
55077;BME280;40971;44.702;11.030;2022-11-20T16:18:49;100852.63;;;9.05;100.00
55077;BME280;40971;44.702;11.030;2022-11-20T16:21:15;100880.13;;;9.12;100.00
55077;BME280;40971;44.702;11.030;2022-11-20T16:23:41;100855.97;;;8.69;100.00
55077;BME280;40971;44.702;11.030;2022-11-20T16:26:16;100877.50;;;8.73;100.00
55077;BME280;40971;44.702;11.030;2022-11-20T16:28:45;100867.75;;;8.78;100.00
55077;BME280;40971;44.702;11.030;2022-11-20T16:31:16;100852.28;;;8.75;100.00
55077;BME280;40971;44.702;11.030;2022-11-20T16:33:48;100874.38;;;8.85;100.00
55077;BME280;40971;44.702;11.030;2022-11-20T16:36:14;100851.75;;;8.67;100.00
55077;BME280;40971;44.702;11.030;2022-11-20T16:38:40;100848.50;;;8.62;100.00
55077;BME280;40971;44.702;11.030;2022-11-20T16:41:11;100858.78;;;8.65;100.00
55077;BME280;40971;44.702;11.030;2022-11-20T16:46:19;100869.06;;;8.68;100.00
55077;BME280;40971;44.702;11.030;2022-11-20T16:48:52;100868.50;;;8.61;100.00
55077;BME280;40971;44.702;11.030;2022-11-20T16:51:18;100847.84;;;8.36;100.00
55077;BME280;40971;44.702;11.030;2022-11-20T16:53:43;100850.16;;;8.22;100.00
55077;BME280;40971;44.702;11.030;2022-11-20T16:56:13;100872.19;;;8.35;100.00
55077;BME280;40971;44.702;11.030;2022-11-20T16:59:02;100879.69;;;8.43;100.00
55077;BME280;40971;44.702;11.030;2022-11-20T17:01:28;100863.22;;;8.42;100.00
55077;BME280;40971;44.702;11.030;2022-11-20T17:04:05;100821.84;;;8.36;100.00
55077;BME280;40971;44.702;11.030;2022-11-20T17:06:33;100872.66;;;8.65;100.00
55077;BME280;40971;44.702;11.030;2022-11-20T17:08:59;100850.84;;;8.48;100.00
55077;BME280;40971;44.702;11.030;2022-11-20T17:11:25;100838.88;;;8.23;100.00
55077;BME280;40971;44.702;11.030;2022-11-20T17:13:51;100882.97;;;8.26;100.00
55077;BME280;40971;44.702;11.030;2022-11-20T17:16:21;100877.28;;;7.96;100.00
55077;BME280;40971;44.702;11.030;2022-11-20T17:18:54;100858.00;;;7.58;100.00
55077;BME280;40971;44.702;11.030;2022-11-20T17:21:20;100822.81;;;7.06;100.00
55077;BME280;40971;44.702;11.030;2022-11-20T17:23:46;100797.69;;;6.34;100.00
55077;BME280;40971;44.702;11.030;2022-11-20T17:26:14;100837.19;;;6.18;100.00
55077;BME280;40971;44.702;11.030;2022-11-20T17:28:57;100817.09;;;6.24;100.00
55077;BME280;40971;44.702;11.030;2022-11-20T17:31:25;100891.47;;;6.74;100.00
55077;BME280;40971;44.702;11.030;2022-11-20T17:33:51;100888.88;;;6.74;100.00
55077;BME280;40971;44.702;11.030;2022-11-20T17:36:17;100884.59;;;6.73;100.00
55077;BME280;40971;44.702;11.030;2022-11-20T17:38:43;100830.03;;;6.49;100.00
55077;BME280;40971;44.702;11.030;2022-11-20T17:41:14;100878.69;;;6.92;100.00
55077;BME280;40971;44.702;11.030;2022-11-20T17:43:48;100821.88;;;6.60;100.00
55077;BME280;40971;44.702;11.030;2022-11-20T17:46:16;100860.16;;;6.78;100.00
55077;BME280;40971;44.702;11.030;2022-11-20T17:48:43;100879.66;;;6.90;100.00
55077;BME280;40971;44.702;11.030;2022-11-20T17:51:13;100829.19;;;6.49;100.00
55077;BME280;40971;44.702;11.030;2022-11-20T17:53:40;100870.66;;;6.50;100.00
55077;BME280;40971;44.702;11.030;2022-11-20T17:56:06;100871.38;;;6.55;100.00